Terminal Aerodrome Forecast
Issued by NWS Sterling, VA

Home | Current Version | Previous Version | Text Only | Print | Product List | Glossary On
Versions: 1 2 3 4 5 6 7 8 9 10 11 12 13 14 15 16 17 18 19 20 21 22 23
000
FTUS41 KLWX 230234 AAA
TAFIAD
TAF AMD
KIAD 230234Z 2303/2406 VRB03KT P6SM SCT025 BKN130
     FM231500 04006KT P6SM SCT025 OVC030
     FM231800 06006KT P6SM -SHRA BKN015 OVC035
     FM232100 03006KT 3SM -SHRA BR BKN015 OVC025
     FM240000 04005KT P6SM BKN020 OVC025
     FM240300 02004KT P6SM SCT025 OVC035=

USA.gov is the U.S. government's official web portal to all federal, state and local government web resources and services.